Terminal Aerodrome Forecast
Issued by NWS

Home | Current Version | Previous Version | Text Only | Print | Product List | Glossary On
Versions: 1 2 3 4 5 6 7 8 9 10 11 12 13 14 15 16 17 18 19 20 21 22 23 24
000
FTUS45 KABQ 301700
TAFSAF
TAF
KSAF 301735Z 3018/3118 25007KT P6SM SCT060
     FM310000 13015G25KT P6SM BKN060
      TEMPO 3100/3104 4SM -TSRA OVC030CB
     FM310400 12018G26KT P6SM VCSH BKN050
     FM310900 14011KT P6SM BKN050
     FM311200 15008KT P6SM OVC025
     FM311500 16008KT P6SM BKN040=

USA.gov is the U.S. government's official web portal to all federal, state and local government web resources and services.